createdAt,value
2023-03-31T00:15:33.371Z,378
2023-03-31T00:35:33.329Z,382
2023-03-31T00:55:33.309Z,377
2023-03-31T01:15:32.786Z,377
2023-03-31T01:35:33.303Z,380
2023-03-31T01:55:33.255Z,380
2023-03-31T02:15:33.227Z,383
2023-03-31T02:35:33.188Z,379
2023-03-31T02:55:33.162Z,379
2023-03-31T03:15:33.166Z,378
2023-03-31T03:35:33.154Z,377
2023-03-31T03:55:32.605Z,390
2023-03-31T04:15:33.065Z,392
2023-03-31T04:35:33.073Z,390
2023-03-31T04:55:33.032Z,391
2023-03-31T05:15:34.611Z,385
2023-03-31T05:35:33.042Z,386
2023-03-31T05:55:33.696Z,380
2023-03-31T06:15:32.993Z,390
2023-03-31T06:35:32.780Z,394
2023-03-31T06:55:32.921Z,393
2023-03-31T07:15:32.874Z,405
2023-03-31T07:35:32.891Z,427
2023-03-31T07:55:32.863Z,434
2023-03-31T08:15:32.608Z,432
2023-03-31T08:35:33.234Z,414
2023-03-31T08:55:32.797Z,420
2023-03-31T09:15:32.586Z,420
2023-03-31T09:35:32.833Z,426
2023-03-31T09:55:39.409Z,431
2023-03-31T10:15:32.710Z,388
2023-03-31T10:35:32.696Z,439
2023-03-31T10:55:32.620Z,421
2023-03-31T11:15:32.668Z,425
2023-03-31T11:35:32.611Z,444
2023-03-31T11:55:32.553Z,434
2023-03-31T12:15:32.331Z,467
2023-03-31T12:35:32.527Z,458
2023-03-31T12:55:32.511Z,439
2023-03-31T13:15:32.455Z,434
2023-03-31T13:35:32.417Z,458
2023-03-31T13:55:32.400Z,452
2023-03-31T14:15:32.551Z,443
2023-03-31T14:35:32.364Z,456
2023-03-31T14:55:49.671Z,434
2023-03-31T15:15:32.310Z,441
2023-03-31T15:35:32.271Z,432
2023-03-31T15:55:32.265Z,437
2023-03-31T16:15:32.231Z,447
2023-03-31T16:35:32.219Z,435
2023-03-31T16:55:32.191Z,436
2023-03-31T17:15:31.678Z,450
2023-03-31T17:35:32.176Z,427
2023-03-31T17:55:32.113Z,447
2023-03-31T18:15:32.074Z,440
2023-03-31T18:35:32.117Z,443
2023-03-31T18:55:32.028Z,434
2023-03-31T19:15:32.009Z,432
2023-03-31T19:35:32.114Z,441
2023-03-31T19:55:32.111Z,442
2023-03-31T20:15:32.066Z,445
2023-03-31T20:35:32.101Z,447
2023-03-31T20:55:32.235Z,435
2023-03-31T21:15:31.555Z,422
2023-03-31T21:35:32.038Z,424
2023-03-31T21:55:32.037Z,432
2023-03-31T22:15:31.744Z,425
2023-03-31T22:35:31.970Z,423
2023-03-31T22:55:31.902Z,412
2023-03-31T23:15:31.889Z,421
2023-03-31T23:35:31.857Z,432
2023-03-31T23:55:31.866Z,428
